createdAt,value
2018-07-02T00:01:03.626Z,99062.06
2018-07-02T00:04:06.596Z,99059.16
2018-07-02T00:07:12.350Z,99062.28
2018-07-02T00:10:15.397Z,99052.95
2018-07-02T00:13:18.397Z,99049.84
2018-07-02T00:16:21.473Z,99050.66
2018-07-02T00:19:24.790Z,99048.40
2018-07-02T00:22:28.926Z,99048.22
2018-07-02T00:25:31.938Z,99050.00
2018-07-02T00:28:35.083Z,99047.53
2018-07-02T00:31:39.184Z,99047.05
2018-07-02T00:34:43.205Z,99050.34
2018-07-02T00:37:47.301Z,99057.52
2018-07-02T00:40:50.394Z,99058.13
2018-07-02T00:43:53.382Z,99055.66
2018-07-02T00:46:56.397Z,99052.86
2018-07-02T00:49:59.421Z,99053.86
2018-07-02T00:53:03.562Z,99050.62
2018-07-02T00:56:06.616Z,99052.12
2018-07-02T00:59:09.612Z,99054.74
2018-07-02T01:02:12.633Z,99049.70
2018-07-02T01:05:15.682Z,99044.80
2018-07-02T01:08:19.829Z,99046.09
2018-07-02T01:11:22.969Z,99039.89
2018-07-02T01:14:26.035Z,99039.56
2018-07-02T01:17:30.129Z,99041.48
2018-07-02T01:20:33.143Z,99042.78
2018-07-02T01:23:36.269Z,99035.27
2018-07-02T01:26:39.373Z,99036.58
2018-07-02T01:29:42.306Z,99038.20
2018-07-02T01:32:45.304Z,99044.06
2018-07-02T01:35:49.272Z,99045.84
2018-07-02T01:38:52.296Z,99045.69
2018-07-02T01:41:55.650Z,99039.82
2018-07-02T01:44:58.694Z,99043.09
2018-07-02T01:48:01.663Z,99038.19
2018-07-02T01:51:04.751Z,99038.16
2018-07-02T01:54:07.805Z,99037.80
2018-07-02T01:57:10.873Z,99040.06
2018-07-02T02:00:15.011Z,99047.55
2018-07-02T02:03:18.050Z,99054.22
2018-07-02T02:06:21.118Z,99060.34
2018-07-02T02:09:24.126Z,99056.73
2018-07-02T02:12:27.200Z,99061.70
2018-07-02T02:15:30.358Z,99058.08
2018-07-02T02:18:33.328Z,99055.20
2018-07-02T02:21:36.560Z,99065.49
2018-07-02T02:24:40.610Z,99064.50
2018-07-02T02:27:43.685Z,99057.35
2018-07-02T02:30:46.783Z,99057.19
2018-07-02T02:33:49.894Z,99060.27
2018-07-02T02:36:53.010Z,99051.71
2018-07-02T02:39:55.961Z,99054.16
2018-07-02T02:42:58.992Z,99046.56
2018-07-02T02:46:01.977Z,99042.50
2018-07-02T02:49:05.276Z,99057.26
2018-07-02T02:52:08.297Z,99059.05
2018-07-02T02:55:11.274Z,99054.08
2018-07-02T02:58:14.245Z,99056.33
2018-07-02T03:01:18.293Z,99060.03
2018-07-02T03:04:21.298Z,99056.30
2018-07-02T03:07:24.254Z,99059.83
2018-07-02T03:10:28.260Z,99058.06
2018-07-02T03:13:32.304Z,99062.02
2018-07-02T03:16:35.287Z,99055.83
2018-07-02T03:19:38.308Z,99047.03
2018-07-02T03:22:41.332Z,99044.45
2018-07-02T03:25:44.323Z,99048.20
2018-07-02T03:28:47.842Z,99054.39
2018-07-02T03:31:50.809Z,99067.91
2018-07-02T03:34:53.894Z,99066.39
2018-07-02T03:37:57.104Z,99071.49
2018-07-02T03:41:00.095Z,99060.52
2018-07-02T03:44:03.189Z,99063.20
2018-07-02T03:47:06.232Z,99064.06
2018-07-02T03:50:09.318Z,99061.22
2018-07-02T03:53:13.329Z,99055.27
2018-07-02T03:56:16.392Z,99061.39
2018-07-02T03:59:19.367Z,99067.98
2018-07-02T04:02:22.378Z,99071.80
2018-07-02T04:05:25.361Z,99065.37
2018-07-02T04:08:28.412Z,99060.05
2018-07-02T04:11:31.382Z,99061.77
2018-07-02T04:14:34.441Z,99068.83
2018-07-02T04:17:37.442Z,99056.04
2018-07-02T04:20:42.458Z,99054.00
2018-07-02T04:23:45.456Z,99055.24
2018-07-02T04:26:49.034Z,99040.87
2018-07-02T04:29:52.035Z,99040.05
2018-07-02T04:32:55.043Z,99043.90
2018-07-02T04:35:58.014Z,99045.97
2018-07-02T04:39:01.031Z,99052.00
2018-07-02T04:42:05.235Z,99056.22
2018-07-02T04:45:08.357Z,99059.22
2018-07-02T04:48:11.612Z,99065.27
2018-07-02T04:51:14.373Z,99063.23
2018-07-02T04:54:17.318Z,99057.52
2018-07-02T04:57:20.528Z,99053.55
2018-07-02T05:00:23.636Z,99054.27
2018-07-02T05:03:26.731Z,99045.98
2018-07-02T05:06:29.682Z,99045.70
2018-07-02T05:09:33.104Z,99043.20
2018-07-02T05:12:36.079Z,99041.84
2018-07-02T05:15:39.132Z,99038.00
2018-07-02T05:18:42.103Z,99046.82
2018-07-02T05:21:45.084Z,99040.14
2018-07-02T05:24:48.066Z,99038.39
2018-07-02T05:27:51.103Z,99036.87
2018-07-02T05:30:54.022Z,99037.41
2018-07-02T05:33:57.252Z,99040.61
2018-07-02T05:37:00.018Z,99044.12
2018-07-02T05:40:03.952Z,99043.80
2018-07-02T05:43:06.947Z,99046.30
2018-07-02T05:46:09.906Z,99048.09
2018-07-02T05:49:12.930Z,99039.52
2018-07-02T05:52:15.962Z,99035.34
2018-07-02T05:55:18.966Z,99029.11
2018-07-02T05:58:22.029Z,99036.67
2018-07-02T06:01:25.050Z,99036.39
2018-07-02T06:04:28.233Z,99034.61
2018-07-02T06:07:31.316Z,99028.22
2018-07-02T06:10:34.268Z,99030.39
2018-07-02T06:13:37.298Z,99035.05
2018-07-02T06:16:40.455Z,99038.03
2018-07-02T06:19:43.363Z,99035.77
2018-07-02T06:22:46.418Z,99032.91
2018-07-02T06:25:49.422Z,99032.39
2018-07-02T06:28:52.603Z,99033.73
2018-07-02T06:31:55.657Z,99036.09
2018-07-02T06:34:58.714Z,99034.71
2018-07-02T06:38:01.825Z,99037.53
2018-07-02T06:41:04.907Z,99036.00
2018-07-02T06:44:07.936Z,99038.63
2018-07-02T06:47:11.970Z,99038.44
2018-07-02T06:50:14.921Z,99042.44
2018-07-02T06:53:17.930Z,99047.05
2018-07-02T06:56:22.037Z,99049.54
2018-07-02T06:59:25.039Z,99051.09
2018-07-02T07:02:28.003Z,99047.16
2018-07-02T07:05:30.956Z,99054.02
2018-07-02T07:08:33.941Z,99049.45
2018-07-02T07:11:37.001Z,99041.75
2018-07-02T07:14:39.917Z,99034.12
2018-07-02T07:17:42.962Z,99047.56
2018-07-02T07:20:45.962Z,99041.40
2018-07-02T07:23:49.001Z,99038.45
2018-07-02T07:26:52.046Z,99037.84
2018-07-02T07:29:55.036Z,99044.41
2018-07-02T07:32:58.476Z,99042.05
2018-07-02T07:36:01.774Z,99043.20
2018-07-02T07:39:07.155Z,99042.46
2018-07-02T07:42:10.144Z,99052.70
2018-07-02T07:45:13.143Z,99043.06
2018-07-02T07:48:16.114Z,99042.29
2018-07-02T07:51:20.147Z,99040.33
2018-07-02T07:54:23.116Z,99040.41
2018-07-02T07:57:26.127Z,99037.58
2018-07-02T08:00:30.177Z,99039.83
2018-07-02T08:03:33.356Z,99038.26
2018-07-02T08:06:36.354Z,99037.24
2018-07-02T08:09:39.383Z,99043.86
2018-07-02T08:12:42.409Z,99039.89
2018-07-02T08:15:45.425Z,99042.27
2018-07-02T08:18:48.514Z,99045.52
2018-07-02T08:21:51.486Z,99055.78
2018-07-02T08:24:54.446Z,99048.83
2018-07-02T08:27:57.457Z,99047.01
2018-07-02T08:31:00.465Z,99039.55
2018-07-02T08:34:04.527Z,99026.39
2018-07-02T08:37:07.569Z,99047.30
2018-07-02T08:40:11.584Z,99039.30
2018-07-02T08:43:14.570Z,99050.57
2018-07-02T08:46:17.699Z,99043.21
2018-07-02T08:49:21.144Z,99046.73
2018-07-02T08:52:24.226Z,99055.83
2018-07-02T08:55:27.352Z,99050.95
2018-07-02T08:58:30.428Z,99054.31
2018-07-02T09:01:33.403Z,99052.55
2018-07-02T09:04:37.518Z,99038.13
2018-07-02T09:07:40.513Z,99046.30
2018-07-02T09:10:43.485Z,99045.06
2018-07-02T09:13:46.479Z,99043.84
2018-07-02T09:16:49.450Z,99048.13
2018-07-02T09:19:52.482Z,99039.47
2018-07-02T09:22:55.494Z,99038.14
2018-07-02T09:25:58.466Z,99038.98
2018-07-02T09:29:01.700Z,99041.67
2018-07-02T09:32:04.722Z,99025.08
2018-07-02T09:35:08.776Z,99037.08
2018-07-02T09:38:11.727Z,99038.75
2018-07-02T09:41:14.697Z,99045.80
2018-07-02T09:44:17.708Z,99034.80
2018-07-02T09:47:20.781Z,99040.85
2018-07-02T09:50:24.877Z,99043.47
2018-07-02T09:53:27.834Z,99040.09
2018-07-02T09:56:31.493Z,99031.23
2018-07-02T09:59:34.526Z,99036.31
2018-07-02T10:02:37.590Z,99030.73
2018-07-02T10:05:40.611Z,99027.73
2018-07-02T10:08:43.600Z,99036.75
2018-07-02T10:11:46.850Z,99034.72
2018-07-02T10:14:49.852Z,99033.73
2018-07-02T10:17:52.843Z,99021.14
2018-07-02T10:20:55.852Z,99022.47
2018-07-02T10:23:59.001Z,99019.55
2018-07-02T10:27:02.127Z,99022.22
2018-07-02T10:30:05.143Z,99016.03
2018-07-02T10:33:09.114Z,99029.92
2018-07-02T10:36:12.093Z,99027.27
2018-07-02T10:39:15.127Z,99026.73
2018-07-02T10:42:18.211Z,99018.39
2018-07-02T10:45:21.246Z,99025.63
2018-07-02T10:48:24.316Z,99033.13
2018-07-02T10:51:27.342Z,99025.66
2018-07-02T10:54:30.325Z,99025.63
2018-07-02T10:57:33.350Z,99024.11
2018-07-02T11:00:36.333Z,99024.63
2018-07-02T11:03:39.274Z,99028.65
2018-07-02T11:06:42.203Z,99022.73
2018-07-02T11:09:45.176Z,99021.62
2018-07-02T11:12:48.171Z,99019.78
2018-07-02T11:15:52.238Z,99023.46
2018-07-02T11:18:55.331Z,99013.38
2018-07-02T11:21:59.408Z,99001.04
2018-07-02T11:25:02.382Z,99015.51
2018-07-02T11:28:05.413Z,99005.16
2018-07-02T11:31:08.427Z,98999.68
2018-07-02T11:34:11.480Z,98996.95
2018-07-02T11:37:14.401Z,98997.08
2018-07-02T11:40:17.504Z,98991.81
2018-07-02T11:43:20.516Z,98980.67
2018-07-02T11:46:23.779Z,98986.28
2018-07-02T11:49:26.909Z,98988.52
2018-07-02T11:52:30.022Z,98983.62
2018-07-02T11:55:34.100Z,98982.52
2018-07-02T11:58:38.151Z,98984.30
2018-07-02T12:01:41.144Z,98984.78
2018-07-02T12:04:44.222Z,98977.63
2018-07-02T12:07:47.347Z,98976.62
2018-07-02T12:10:50.349Z,98975.12
2018-07-02T12:13:53.455Z,98979.43
2018-07-02T12:16:56.487Z,98977.63
2018-07-02T12:20:00.110Z,98974.64
2018-07-02T12:23:03.233Z,98974.12
2018-07-02T12:26:07.350Z,98976.34
2018-07-02T12:29:10.431Z,98971.73
2018-07-02T12:32:13.431Z,98982.70
2018-07-02T12:35:16.481Z,98974.82
2018-07-02T12:38:19.542Z,98975.11
2018-07-02T12:41:22.566Z,98972.64
2018-07-02T12:44:25.981Z,98961.10
2018-07-02T12:47:28.997Z,98966.95
2018-07-02T12:50:31.995Z,98963.95
2018-07-02T12:53:34.918Z,98974.75
2018-07-02T12:56:37.977Z,98977.11
2018-07-02T12:59:40.982Z,98969.94
2018-07-02T13:02:43.962Z,98964.87
2018-07-02T13:05:46.936Z,98966.19
2018-07-02T13:08:50.063Z,98972.77
2018-07-02T13:11:53.146Z,98967.52
2018-07-02T13:14:56.144Z,98953.09
2018-07-02T13:17:59.145Z,98951.68
2018-07-02T13:21:02.260Z,98951.97
2018-07-02T13:24:05.654Z,98949.19
2018-07-02T13:27:09.625Z,98920.28
2018-07-02T13:30:12.662Z,98833.27
2018-07-02T13:33:15.738Z,98824.65
2018-07-02T13:36:18.771Z,98818.09
2018-07-02T13:39:21.848Z,98823.02
2018-07-02T13:42:24.864Z,98872.44
2018-07-02T13:45:28.146Z,98908.19
2018-07-02T13:48:31.153Z,98915.64
2018-07-02T13:51:34.211Z,98871.20
2018-07-02T13:54:37.367Z,98871.55
2018-07-02T13:57:40.385Z,98866.06
2018-07-02T14:00:43.434Z,98857.71
2018-07-02T14:03:46.391Z,98849.26
2018-07-02T14:06:49.403Z,98856.05
2018-07-02T14:09:52.571Z,98839.70
2018-07-02T14:12:55.563Z,98842.96
2018-07-02T14:15:58.760Z,98836.63
2018-07-02T14:19:01.714Z,98824.09
2018-07-02T14:22:04.772Z,98820.16
2018-07-02T14:25:07.853Z,98826.47
2018-07-02T14:28:10.874Z,98821.66
2018-07-02T14:31:14.010Z,98801.02
2018-07-02T14:34:16.943Z,98809.75
2018-07-02T14:37:19.981Z,98802.70
2018-07-02T14:40:22.998Z,98796.79
2018-07-02T14:43:25.999Z,98796.63
2018-07-02T14:46:29.090Z,98791.40
2018-07-02T14:49:32.175Z,98785.05
2018-07-02T14:52:35.264Z,98781.84
2018-07-02T14:55:38.265Z,98784.00
2018-07-02T14:58:41.365Z,98791.53
2018-07-02T15:01:44.438Z,98781.70
2018-07-02T15:04:47.405Z,98789.61
2018-07-02T15:07:50.394Z,98784.74
2018-07-02T15:10:53.438Z,98783.56
2018-07-02T15:13:56.651Z,98788.66
2018-07-02T15:16:59.744Z,98781.95
2018-07-02T15:20:02.983Z,98787.66
2018-07-02T15:23:06.049Z,98787.66
2018-07-02T15:26:09.116Z,98792.39
2018-07-02T15:29:12.128Z,98791.30
2018-07-02T15:32:15.212Z,98785.75
2018-07-02T15:35:20.066Z,98786.98
2018-07-02T15:38:23.089Z,98798.64
2018-07-02T15:41:26.293Z,98791.20
2018-07-02T15:44:29.414Z,98790.28
2018-07-02T15:47:33.490Z,98788.09
2018-07-02T15:50:36.632Z,98781.42
2018-07-02T15:53:39.661Z,98771.06
2018-07-02T15:56:42.749Z,98781.74
2018-07-02T15:59:45.857Z,98777.27
2018-07-02T16:02:48.886Z,98780.15
2018-07-02T16:05:51.872Z,98777.42
2018-07-02T16:08:54.854Z,98782.25
2018-07-02T16:11:57.794Z,98777.89
2018-07-02T16:15:00.784Z,98783.17
2018-07-02T16:18:03.762Z,98789.79
2018-07-02T16:21:06.777Z,98796.88
2018-07-02T16:24:10.209Z,98792.43
2018-07-02T16:27:13.433Z,98793.44
2018-07-02T16:30:16.445Z,98788.98
2018-07-02T16:33:20.418Z,98784.62
2018-07-02T16:36:23.410Z,98793.54
2018-07-02T16:39:26.405Z,98790.13
2018-07-02T16:42:29.597Z,98795.70
2018-07-02T16:45:33.678Z,98796.18
2018-07-02T16:48:36.713Z,98794.76
2018-07-02T16:51:39.704Z,98788.86
2018-07-02T16:54:42.769Z,98785.11
2018-07-02T16:57:45.811Z,98791.19
2018-07-02T17:00:48.872Z,98796.73
2018-07-02T17:03:51.841Z,98805.77
2018-07-02T17:06:54.811Z,98798.59
2018-07-02T17:09:57.866Z,98799.20
2018-07-02T17:13:00.942Z,98801.12
2018-07-02T17:16:05.042Z,98789.41
2018-07-02T17:19:08.192Z,98800.53
2018-07-02T17:22:11.322Z,98802.47
2018-07-02T17:25:14.302Z,98807.33
2018-07-02T17:28:17.338Z,98798.05
2018-07-02T17:31:20.416Z,98795.93
2018-07-02T17:34:23.362Z,98802.80
2018-07-02T17:37:26.373Z,98799.66
2018-07-02T17:40:29.390Z,98802.44
2018-07-02T17:43:32.493Z,98809.83
2018-07-02T17:46:35.684Z,98798.50
2018-07-02T17:49:38.663Z,98798.25
2018-07-02T17:52:41.644Z,98803.09
2018-07-02T17:55:44.614Z,98800.09
2018-07-02T17:58:47.606Z,98806.59
2018-07-02T18:01:50.975Z,98801.06
2018-07-02T18:04:53.933Z,98800.66
2018-07-02T18:07:56.986Z,98796.63
2018-07-02T18:10:59.997Z,98805.45
2018-07-02T18:14:03.599Z,98806.73
2018-07-02T18:17:12.370Z,98814.30
2018-07-02T18:20:15.348Z,98801.23
2018-07-02T18:23:22.850Z,98808.11
2018-07-02T18:26:25.769Z,98815.31
2018-07-02T18:29:31.301Z,98812.91
2018-07-02T18:32:34.298Z,98823.27
2018-07-02T18:35:37.407Z,98818.26
2018-07-02T18:38:40.558Z,98818.52
2018-07-02T18:41:43.641Z,98813.97
2018-07-02T18:44:46.755Z,98815.16
2018-07-02T18:47:51.759Z,98820.09
2018-07-02T18:50:54.826Z,98824.45
2018-07-02T18:53:59.529Z,98822.45
2018-07-02T18:57:02.632Z,98831.07
2018-07-02T19:00:05.943Z,98830.89
2018-07-02T19:03:08.955Z,98832.55
2018-07-02T19:06:12.047Z,98838.97
2018-07-02T19:09:15.101Z,98838.17
2018-07-02T19:12:18.108Z,98841.35
2018-07-02T19:15:22.142Z,98850.59
2018-07-02T19:18:25.201Z,98852.58
2018-07-02T19:21:28.236Z,98848.58
2018-07-02T19:24:32.220Z,98850.66
2018-07-02T19:27:35.195Z,98857.09
2018-07-02T19:30:38.302Z,98857.11
2018-07-02T19:33:41.362Z,98857.20
2018-07-02T19:36:44.473Z,98870.41
2018-07-02T19:39:47.597Z,98885.11
2018-07-02T19:42:50.862Z,98884.42
2018-07-02T19:45:53.949Z,98876.55
2018-07-02T19:48:56.902Z,98889.18
2018-07-02T19:51:59.940Z,98896.05
2018-07-02T19:55:03.051Z,98900.80
2018-07-02T19:58:06.500Z,98899.93
2018-07-02T20:01:09.568Z,98908.36
2018-07-02T20:04:13.519Z,98912.98
2018-07-02T20:07:16.635Z,98911.58
2018-07-02T20:10:19.725Z,98915.63
2018-07-02T20:13:22.713Z,98918.08
2018-07-02T20:16:25.787Z,98924.75
2018-07-02T20:19:28.922Z,98917.77
2018-07-02T20:22:31.991Z,98917.24
2018-07-02T20:25:35.092Z,98925.80
2018-07-02T20:28:39.208Z,98931.84
2018-07-02T20:31:43.388Z,98927.52
2018-07-02T20:34:46.339Z,98924.09
2018-07-02T20:37:49.410Z,98925.32
2018-07-02T20:40:52.490Z,98931.02
2018-07-02T20:43:55.555Z,98932.79
2018-07-02T20:46:58.774Z,98941.61
2018-07-02T20:50:01.895Z,98942.63
2018-07-02T20:53:05.073Z,98951.45
2018-07-02T20:56:09.268Z,98947.72
2018-07-02T20:59:12.257Z,98957.03
2018-07-02T21:02:16.072Z,98961.41
2018-07-02T21:05:19.066Z,98963.14
2018-07-02T21:08:22.178Z,98963.45
2018-07-02T21:11:25.242Z,98974.94
2018-07-02T21:14:28.228Z,98965.11
2018-07-02T21:17:31.241Z,98966.73
2018-07-02T21:20:35.314Z,98974.52
2018-07-02T21:23:38.449Z,98978.78
2018-07-02T21:26:41.505Z,98982.73
2018-07-02T21:29:44.503Z,98974.20
2018-07-02T21:32:47.574Z,98982.41
2018-07-02T21:35:50.618Z,98979.58
2018-07-02T21:38:53.599Z,98983.02
2018-07-02T21:41:56.723Z,98984.95
2018-07-02T21:45:00.748Z,98993.27
2018-07-02T21:48:03.734Z,98998.94
2018-07-02T21:51:07.922Z,98993.19
2018-07-02T21:54:11.035Z,98998.98
2018-07-02T21:57:14.031Z,99002.04
2018-07-02T22:00:18.067Z,99012.09
2018-07-02T22:03:22.158Z,99016.13
2018-07-02T22:06:26.188Z,99019.36
2018-07-02T22:09:29.178Z,99024.66
2018-07-02T22:12:32.302Z,99022.73
2018-07-02T22:15:36.533Z,99015.38
2018-07-02T22:18:39.735Z,99021.63
2018-07-02T22:21:42.817Z,99026.64
2018-07-02T22:24:46.369Z,99024.91
2018-07-02T22:27:49.449Z,99023.78
2018-07-02T22:30:52.517Z,99030.72
2018-07-02T22:33:55.584Z,99021.21
2018-07-02T22:36:58.667Z,99025.27
2018-07-02T22:40:01.885Z,99029.84
2018-07-02T22:43:05.096Z,99032.58
2018-07-02T22:46:08.143Z,99035.30
2018-07-02T22:49:12.223Z,99039.11
2018-07-02T22:52:15.297Z,99042.78
2018-07-02T22:55:18.288Z,99053.28
2018-07-02T22:58:21.377Z,99058.70
2018-07-02T23:01:24.636Z,99058.17
2018-07-02T23:04:27.713Z,99057.11
2018-07-02T23:07:31.292Z,99063.30
2018-07-02T23:10:34.574Z,99065.61
2018-07-02T23:13:37.579Z,99068.91
2018-07-02T23:16:41.624Z,99064.80
2018-07-02T23:19:44.647Z,99068.69
2018-07-02T23:22:58.859Z,99071.31
2018-07-02T23:26:01.882Z,99077.16
2018-07-02T23:29:04.909Z,99075.14
2018-07-02T23:32:08.138Z,99079.10
2018-07-02T23:35:12.199Z,99071.16
2018-07-02T23:38:15.155Z,99081.34
2018-07-02T23:41:18.221Z,99080.73
2018-07-02T23:44:21.239Z,99079.16
2018-07-02T23:47:24.234Z,99076.14
2018-07-02T23:50:27.280Z,99074.98
2018-07-02T23:53:30.350Z,99074.46
2018-07-02T23:56:33.424Z,99072.19
2018-07-02T23:59:36.356Z,99071.55
